Time;durP1;ratioP1;P1;durP2;ratioP2;P2;SDS_P1;SDS_P2;PMS_P1;PMS_P2;Temp;Humidity;BMP_temperature;BMP_pressure;BME280_temperature;BME280_humidity;BME280_pressure;Samples;Min_cycle;Max_cycle;Signal;HPM_P1;HPM_P2
2024/03/05 00:00:48;;;;;;;68.80;32.25;;;;;;;5.75;100.00;95416.53;2098866;28;20404;-61
2024/03/05 00:01:49;;;;;;;70.00;32.70;;;;;;;5.74;100.00;95414.00;2099114;28;20040;-61
2024/03/05 00:02:50;;;;;;;70.97;32.85;;;;;;;5.73;100.00;95415.75;2098572;28;20059;-62
2024/03/05 00:03:51;;;;;;;69.07;30.60;;;;;;;5.74;100.00;95416.56;2098645;28;20055;-62
2024/03/05 00:04:53;;;;;;;64.50;28.85;;;;;;;5.72;100.00;95414.06;2098170;28;20044;-61
2024/03/05 00:05:57;;;;;;;72.90;33.30;;;;;;;5.72;100.00;95418.34;2098742;28;20041;-61
2024/03/05 00:06:58;;;;;;;70.72;33.95;;;;;;;5.70;100.00;95412.44;2098654;28;20036;-62
2024/03/05 00:07:59;;;;;;;71.35;32.50;;;;;;;5.65;100.00;95415.19;2098806;28;20066;-61
2024/03/05 00:09:00;;;;;;;74.15;33.90;;;;;;;5.66;100.00;95414.28;2098102;28;20049;-62
2024/03/05 00:10:02;;;;;;;76.78;33.55;;;;;;;5.66;100.00;95416.03;2098188;28;20055;-61
2024/03/05 00:11:04;;;;;;;69.15;31.70;;;;;;;5.66;100.00;95418.59;2098756;28;20059;-61
2024/03/05 00:12:05;;;;;;;74.45;33.50;;;;;;;5.65;100.00;95420.34;2098622;28;20049;-61
2024/03/05 00:13:07;;;;;;;76.65;35.60;;;;;;;5.66;100.00;95416.84;2098182;28;20473;-62
2024/03/05 00:14:08;;;;;;;69.97;30.40;;;;;;;5.66;100.00;95422.00;2098134;28;20060;-61
2024/03/05 00:15:09;;;;;;;67.28;29.17;;;;;;;5.66;100.00;95429.72;2098434;28;20044;-61
2024/03/05 00:16:10;;;;;;;76.18;35.08;;;;;;;5.63;100.00;95429.84;2098503;28;20048;-61
2024/03/05 00:17:12;;;;;;;66.40;31.27;;;;;;;5.65;100.00;95427.25;2098787;28;20040;-61
2024/03/05 00:18:14;;;;;;;71.40;30.02;;;;;;;5.62;100.00;95422.19;2098925;28;20040;-61
2024/03/05 00:19:15;;;;;;;78.47;33.83;;;;;;;5.62;100.00;95429.94;2098500;28;20040;-61
2024/03/05 00:20:20;;;;;;;73.65;30.95;;;;;;;5.59;100.00;95428.31;2097988;28;20047;-61
2024/03/05 00:21:21;;;;;;;72.13;32.88;;;;;;;5.56;100.00;95435.28;2098138;28;20079;-61
2024/03/05 00:22:22;;;;;;;76.00;34.28;;;;;;;5.57;100.00;95426.69;2098660;28;20036;-61
2024/03/05 00:23:24;;;;;;;71.18;32.45;;;;;;;5.57;100.00;95431.81;2098105;28;20048;-61
2024/03/05 00:24:25;;;;;;;78.45;35.17;;;;;;;5.59;100.00;95428.31;2098353;28;20044;-61
2024/03/05 00:25:26;;;;;;;78.97;34.63;;;;;;;5.53;100.00;95424.22;2097892;28;20045;-62
2024/03/05 00:26:28;;;;;;;75.63;33.53;;;;;;;5.55;100.00;95433.63;2089851;28;20052;-61
2024/03/05 00:27:29;;;;;;;70.80;31.17;;;;;;;5.54;100.00;95435.34;2089531;28;20049;-61
2024/03/05 00:28:30;;;;;;;71.97;31.20;;;;;;;5.51;100.00;95431.16;2098067;28;20057;-61
2024/03/05 00:29:31;;;;;;;73.82;30.67;;;;;;;5.50;100.00;95433.78;2098884;28;20481;-61
2024/03/05 00:30:33;;;;;;;74.05;30.83;;;;;;;5.50;100.00;95432.03;2098308;28;20049;-62
2024/03/05 00:31:34;;;;;;;79.97;33.28;;;;;;;5.49;100.00;95437.25;2098010;28;20059;-61
2024/03/05 00:32:39;;;;;;;76.93;35.13;;;;;;;5.48;100.00;95433.84;2097982;28;20059;-62
2024/03/05 00:33:40;;;;;;;79.70;33.00;;;;;;;5.49;100.00;95432.09;2098385;28;20049;-61
2024/03/05 00:34:41;;;;;;;72.43;29.73;;;;;;;5.49;100.00;95434.69;2098336;28;20056;-62
2024/03/05 00:35:44;;;;;;;77.22;31.63;;;;;;;5.46;100.00;95430.47;2098004;28;20053;-62
2024/03/05 00:36:45;;;;;;;75.03;33.92;;;;;;;5.45;100.00;95431.38;2098100;28;20056;-62
2024/03/05 00:37:46;;;;;;;80.78;35.30;;;;;;;5.45;100.00;95433.97;2098565;28;20036;-61
2024/03/05 00:38:47;;;;;;;76.32;32.97;;;;;;;5.44;100.00;95432.25;2098337;28;20052;-61
2024/03/05 00:39:48;;;;;;;70.55;31.23;;;;;;;5.45;100.00;95433.97;2098760;28;20045;-61
2024/03/05 00:40:50;;;;;;;74.60;29.65;;;;;;;5.45;100.00;95435.66;2098631;28;20047;-61
2024/03/05 00:41:51;;;;;;;82.72;34.75;;;;;;;5.46;100.00;95433.06;2098493;28;20047;-62
2024/03/05 00:42:52;;;;;;;82.80;34.45;;;;;;;5.43;100.00;95430.59;2098248;28;20480;-61
2024/03/05 00:43:53;;;;;;;75.72;34.22;;;;;;;5.45;100.00;95436.53;2098719;28;20029;-61
2024/03/05 00:44:54;;;;;;;76.88;34.75;;;;;;;5.46;100.00;95433.06;2098815;28;20048;-62
2024/03/05 00:45:56;;;;;;;85.43;36.80;;;;;;;5.42;100.00;95428.91;2098215;28;20401;-62
2024/03/05 00:46:57;;;;;;;80.60;35.95;;;;;;;5.45;100.00;95435.66;2098809;28;20029;-62
2024/03/05 00:47:58;;;;;;;82.50;35.05;;;;;;;5.47;100.00;95432.16;2097787;28;20044;-61
2024/03/05 00:48:59;;;;;;;79.85;36.20;;;;;;;5.46;100.00;95434.78;2098221;28;20071;-61
2024/03/05 00:50:01;;;;;;;74.15;30.63;;;;;;;5.46;100.00;95430.47;2098252;28;20044;-61
2024/03/05 00:51:02;;;;;;;80.57;33.17;;;;;;;5.45;100.00;95431.38;2097963;28;20522;-61
2024/03/05 00:52:04;;;;;;;82.60;36.92;;;;;;;5.45;100.00;95431.38;2098317;28;20396;-62
2024/03/05 00:53:05;;;;;;;76.63;32.90;;;;;;;5.45;100.00;95427.94;2098649;28;20040;-61
2024/03/05 00:54:06;;;;;;;84.00;35.38;;;;;;;5.45;100.00;95428.81;2098501;28;20460;-61
2024/03/05 00:55:07;;;;;;;79.35;34.15;;;;;;;5.44;100.00;95434.00;2098119;28;20047;-61
2024/03/05 00:56:08;;;;;;;78.35;32.22;;;;;;;5.46;100.00;95434.78;2098438;28;20036;-62
2024/03/05 00:57:09;;;;;;;80.97;33.08;;;;;;;5.44;100.00;95432.25;2098296;28;20048;-61
2024/03/05 00:58:12;;;;;;;80.07;32.80;;;;;;;5.44;100.00;95432.25;2097535;28;20045;-61
2024/03/05 00:59:13;;;;;;;82.90;34.05;;;;;;;5.45;100.00;95439.13;2098477;28;20028;-61
2024/03/05 01:00:14;;;;;;;80.90;35.33;;;;;;;5.41;100.00;95437.53;2098708;28;20499;-61
2024/03/05 01:01:15;;;;;;;78.70;36.28;;;;;;;5.43;100.00;95432.34;2097804;28;20052;-61
2024/03/05 01:02:17;;;;;;;74.35;33.10;;;;;;;5.44;100.00;95431.44;2097559;28;20059;-61
2024/03/05 01:03:18;;;;;;;82.45;35.97;;;;;;;5.46;100.00;95429.66;2097817;28;20396;-61
2024/03/05 01:04:19;;;;;;;76.55;33.50;;;;;;;5.45;100.00;95428.81;2097963;28;20059;-61
2024/03/05 01:05:20;;;;;;;87.07;36.25;;;;;;;5.47;100.00;95426.16;2098469;28;20057;-61
2024/03/05 01:06:21;;;;;;;83.18;33.30;;;;;;;5.47;100.00;95429.56;2097875;28;20063;-61
2024/03/05 01:07:23;;;;;;;82.40;35.80;;;;;;;5.46;100.00;95429.66;2098621;28;20404;-61
2024/03/05 01:08:24;;;;;;;82.13;34.28;;;;;;;5.46;100.00;95435.63;2097721;28;20052;-61
2024/03/05 01:09:25;;;;;;;77.10;31.65;;;;;;;5.45;100.00;95431.38;2097882;28;20048;-62
2024/03/05 01:10:26;;;;;;;82.57;36.35;;;;;;;5.43;100.00;95438.31;2097785;28;20056;-61
2024/03/05 01:11:27;;;;;;;81.25;34.45;;;;;;;5.42;100.00;95426.31;2097737;28;20496;-61
2024/03/05 01:12:28;;;;;;;84.22;35.80;;;;;;;5.42;100.00;95431.47;2097615;28;20048;-61
2024/03/05 01:13:29;;;;;;;77.55;33.55;;;;;;;5.42;100.00;95428.91;2098468;28;20052;-61
2024/03/05 01:14:30;;;;;;;79.15;35.00;;;;;;;5.42;100.00;95431.47;2089759;28;20516;-61
2024/03/05 01:15:31;;;;;;;78.40;33.20;;;;;;;5.42;100.00;95434.03;2089132;28;20040;-61
2024/03/05 01:16:33;;;;;;;80.80;36.10;;;;;;;5.43;100.00;95429.75;2098633;28;20051;-62
2024/03/05 01:17:34;;;;;;;82.55;34.33;;;;;;;5.42;100.00;95434.03;2097864;28;20408;-62
2024/03/05 01:18:36;;;;;;;87.88;37.17;;;;;;;5.39;100.00;95430.75;2098500;28;20044;-61
2024/03/05 01:19:37;;;;;;;75.65;34.78;;;;;;;5.38;100.00;95429.91;2097707;28;20052;-62
2024/03/05 01:20:41;;;;;;;72.25;31.95;;;;;;;5.42;100.00;95435.78;2098413;28;20044;-62
2024/03/05 01:21:42;;;;;;;77.55;32.13;;;;;;;5.41;100.00;95434.94;2098014;28;20053;-61
2024/03/05 01:22:43;;;;;;;84.50;36.28;;;;;;;5.42;100.00;95428.91;2098424;28;20037;-62
2024/03/05 01:23:44;;;;;;;77.03;32.72;;;;;;;5.41;100.00;95428.97;2098554;28;20503;-61
2024/03/05 01:24:45;;;;;;;77.05;34.65;;;;;;;5.40;100.00;95435.00;2098317;28;20097;-61
2024/03/05 01:25:47;;;;;;;80.22;34.90;;;;;;;5.38;100.00;95434.22;2098506;28;20044;-61
2024/03/05 01:26:48;;;;;;;81.20;33.35;;;;;;;5.37;100.00;95435.94;2097689;28;20055;-61
2024/03/05 01:27:49;;;;;;;81.65;33.92;;;;;;;5.37;100.00;95435.94;2098353;28;20045;-61
2024/03/05 01:28:50;;;;;;;82.55;33.88;;;;;;;5.36;100.00;95431.69;2098180;28;20431;-61
2024/03/05 01:29:52;;;;;;;84.10;35.42;;;;;;;5.35;100.00;95432.59;2098626;28;20029;-62
2024/03/05 01:30:54;;;;;;;87.85;37.20;;;;;;;5.32;100.00;95435.28;2098396;28;20043;-61
2024/03/05 01:31:56;;;;;;;76.32;34.90;;;;;;;5.33;100.00;95434.38;2097552;28;20393;-61
2024/03/05 01:32:57;;;;;;;88.85;38.47;;;;;;;5.34;100.00;95438.63;2098254;28;20515;-62
2024/03/05 01:33:58;;;;;;;80.47;35.78;;;;;;;5.34;100.00;95425.75;2098141;28;20036;-62
2024/03/05 01:35:00;;;;;;;83.07;34.00;;;;;;;5.35;100.00;95432.59;2098402;28;20036;-62
2024/03/05 01:36:01;;;;;;;80.07;37.15;;;;;;;5.34;100.00;95438.63;2097696;28;20491;-62
2024/03/05 01:37:03;;;;;;;77.03;32.63;;;;;;;5.34;100.00;95428.34;2098328;28;20080;-61
2024/03/05 01:38:04;;;;;;;80.80;35.60;;;;;;;5.33;100.00;95429.25;2097828;28;20044;-61
2024/03/05 01:39:05;;;;;;;86.68;33.55;;;;;;;5.26;100.00;95436.31;2089218;28;20477;-61
2024/03/05 01:40:08;;;;;;;90.50;38.90;;;;;;;5.26;100.00;95433.75;2089745;28;20032;-60
2024/03/05 01:41:10;;;;;;;85.80;36.25;;;;;;;5.26;100.00;95423.44;2098137;28;20477;-61
2024/03/05 01:42:11;;;;;;;78.03;33.08;;;;;;;5.26;100.00;95422.63;2098390;28;20028;-61
2024/03/05 01:43:12;;;;;;;90.93;37.47;;;;;;;5.29;100.00;95425.94;2098225;28;20055;-61
2024/03/05 01:44:15;;;;;;;85.13;37.53;;;;;;;5.29;100.00;95425.94;2097831;28;20397;-61
2024/03/05 01:45:19;;;;;;;86.78;35.25;;;;;;;5.29;100.00;95427.66;2097741;28;20404;-61
2024/03/05 01:46:20;;;;;;;81.25;34.70;;;;;;;5.30;100.00;95429.34;2097544;28;20055;-61
2024/03/05 01:47:21;;;;;;;81.43;33.92;;;;;;;5.28;100.00;95428.56;2098169;28;20041;-61
2024/03/05 01:48:23;;;;;;;79.75;33.08;;;;;;;5.27;100.00;95430.31;2098309;28;20067;-62
2024/03/05 01:49:24;;;;;;;79.35;36.40;;;;;;;5.25;100.00;95426.94;2097208;28;20059;-61
2024/03/05 01:50:26;;;;;;;85.68;37.67;;;;;;;5.26;100.00;95428.59;2089389;28;20058;-62
2024/03/05 01:51:27;;;;;;;82.90;35.47;;;;;;;5.27;100.00;95429.47;2089217;28;20049;-61
2024/03/05 01:52:28;;;;;;;84.35;37.17;;;;;;;5.29;100.00;95425.94;2098274;28;20067;-61
2024/03/05 01:53:29;;;;;;;88.60;37.88;;;;;;;5.23;100.00;95421.00;2089407;28;20048;-61
2024/03/05 01:54:30;;;;;;;79.38;36.53;;;;;;;5.22;100.00;95421.06;2089314;28;20124;-62
2024/03/05 01:55:31;;;;;;;84.57;38.20;;;;;;;5.29;100.00;95419.94;2081075;28;20049;-62
2024/03/05 01:56:36;;;;;;;84.97;37.88;;;;;;;5.31;100.00;95418.16;2065266;28;20050;-62
2024/03/05 01:57:37;;;;;;;85.15;37.55;;;;;;;5.36;100.00;95418.81;2073656;28;20053;-62
2024/03/05 01:58:39;;;;;;;84.53;37.47;;;;;;;5.38;100.00;95422.19;2089410;28;20045;-62
2024/03/05 01:59:40;;;;;;;78.82;36.30;;;;;;;5.41;100.00;95416.94;2082356;28;20060;-62
2024/03/05 02:00:41;;;;;;;80.07;35.05;;;;;;;5.40;100.00;95410.09;2081858;28;20049;-62
2024/03/05 02:01:45;;;;;;;86.10;38.38;;;;;;;5.36;100.00;95418.00;2091147;28;20037;-62
2024/03/05 02:02:46;;;;;;;88.65;38.97;;;;;;;5.28;100.00;95413.09;2099798;28;20040;-62
2024/03/05 02:03:48;;;;;;;83.90;37.05;;;;;;;5.31;100.00;95410.41;2099284;28;20481;-62
2024/03/05 02:04:49;;;;;;;88.45;37.15;;;;;;;5.40;100.00;95419.53;2082254;28;20037;-62
2024/03/05 02:05:50;;;;;;;81.95;37.53;;;;;;;5.41;100.00;95411.78;2074730;28;20053;-61
2024/03/05 02:06:51;;;;;;;76.43;34.85;;;;;;;5.46;100.00;95416.78;2082641;28;20477;-62
2024/03/05 02:07:55;;;;;;;83.82;37.03;;;;;;;5.40;100.00;95409.25;2081826;28;20076;-62
2024/03/05 02:08:57;;;;;;;83.10;34.95;;;;;;;5.42;100.00;95412.59;2091329;28;20045;-61
2024/03/05 02:09:58;;;;;;;79.95;36.15;;;;;;;5.44;100.00;95414.22;2090690;28;20052;-62
2024/03/05 02:10:59;;;;;;;85.25;37.05;;;;;;;5.47;100.00;95411.53;2090385;28;20445;-61
2024/03/05 02:12:00;;;;;;;79.63;36.92;;;;;;;5.50;100.00;95415.75;2098994;28;20051;-62
2024/03/05 02:13:01;;;;;;;78.65;35.47;;;;;;;5.52;100.00;95408.81;2099177;28;20075;-61
2024/03/05 02:14:02;;;;;;;80.68;37.80;;;;;;;5.54;100.00;95419.91;2098344;28;20040;-62
2024/03/05 02:15:04;;;;;;;77.82;36.90;;;;;;;5.55;100.00;95413.84;2099021;28;20045;-63
2024/03/05 02:16:06;;;;;;;78.63;36.63;;;;;;;5.56;100.00;95419.81;2099420;28;20052;-62
2024/03/05 02:17:07;;;;;;;77.82;35.67;;;;;;;5.55;100.00;95419.00;2098915;28;20044;-62
2024/03/05 02:18:08;;;;;;;81.07;37.30;;;;;;;5.50;100.00;95416.56;2090035;28;20436;-62
2024/03/05 02:19:10;;;;;;;74.32;34.03;;;;;;;5.41;100.00;95409.19;2090579;28;20036;-62
2024/03/05 02:20:15;;;;;;;79.13;35.13;;;;;;;5.44;100.00;95418.56;2098877;28;20060;-62
2024/03/05 02:21:20;;;;;;;83.95;36.15;;;;;;;5.49;100.00;95409.75;2099036;28;20048;-62
2024/03/05 02:22:21;;;;;;;79.28;35.42;;;;;;;5.52;100.00;95416.53;2099420;28;20063;-62
2024/03/05 02:23:23;;;;;;;83.53;36.88;;;;;;;5.55;100.00;95415.59;2090619;28;20052;-61
2024/03/05 02:24:24;;;;;;;81.20;35.33;;;;;;;5.57;100.00;95418.94;2091133;28;20029;-62
2024/03/05 02:25:25;;;;;;;82.50;36.38;;;;;;;5.53;100.00;95415.63;2099545;28;20048;-62
2024/03/05 02:26:29;;;;;;;76.28;35.78;;;;;;;5.52;100.00;95417.38;2099710;28;20468;-61
2024/03/05 02:27:30;;;;;;;77.32;35.47;;;;;;;5.51;100.00;95420.84;2089808;28;20048;-62
2024/03/05 02:28:31;;;;;;;68.97;31.05;;;;;;;5.52;100.00;95424.25;2090764;28;20047;-62
2024/03/05 02:29:37;;;;;;;75.22;29.30;;;;;;;5.48;100.00;95431.28;2090431;28;20503;-61
2024/03/05 02:30:38;;;;;;;72.80;33.25;;;;;;;5.46;100.00;95427.06;2099497;28;20039;-61
2024/03/05 02:31:40;;;;;;;77.85;33.97;;;;;;;5.42;100.00;95428.91;2099588;28;20036;-62
2024/03/05 02:32:41;;;;;;;83.57;36.65;;;;;;;5.42;100.00;95428.91;2090683;28;20041;-62
2024/03/05 02:33:42;;;;;;;77.43;34.55;;;;;;;5.40;100.00;95427.28;2090628;28;20051;-61
2024/03/05 02:34:43;;;;;;;79.15;35.03;;;;;;;5.41;100.00;95427.22;2082008;28;20045;-62
2024/03/05 02:35:46;;;;;;;85.13;37.42;;;;;;;5.43;100.00;95428.03;2082479;28;20473;-61
2024/03/05 02:36:47;;;;;;;82.05;37.08;;;;;;;5.44;100.00;95429.69;2098702;28;20061;-62
2024/03/05 02:37:48;;;;;;;81.80;37.38;;;;;;;5.45;100.00;95425.38;2099842;28;20404;-62
2024/03/05 02:38:50;;;;;;;76.10;34.47;;;;;;;5.46;100.00;95432.22;2099220;28;20055;-62
2024/03/05 02:39:51;;;;;;;82.45;37.70;;;;;;;5.43;100.00;95434.91;2098654;28;20415;-61
2024/03/05 02:40:53;;;;;;;86.13;36.60;;;;;;;5.41;100.00;95434.13;2099457;28;20043;-61
2024/03/05 02:41:54;;;;;;;83.70;36.50;;;;;;;5.41;100.00;95439.25;2098819;28;20056;-61
2024/03/05 02:42:55;;;;;;;82.65;35.75;;;;;;;5.42;100.00;95430.63;2099584;28;20495;-61
2024/03/05 02:43:56;;;;;;;75.35;33.70;;;;;;;5.41;100.00;95440.09;2099050;28;20052;-62
2024/03/05 02:44:57;;;;;;;82.20;36.70;;;;;;;5.40;100.00;95433.28;2098882;28;20048;-61
2024/03/05 02:45:59;;;;;;;80.22;34.22;;;;;;;5.39;100.00;95435.91;2099646;28;20392;-62
2024/03/05 02:47:00;;;;;;;81.72;37.40;;;;;;;5.39;100.00;95434.16;2099387;28;20055;-62
2024/03/05 02:48:03;;;;;;;85.65;34.22;;;;;;;5.41;100.00;95436.69;2098933;28;20495;-61
2024/03/05 02:49:04;;;;;;;82.38;36.42;;;;;;;5.39;100.00;95434.16;2099516;28;20400;-61
2024/03/05 02:50:07;;;;;;;77.35;35.10;;;;;;;5.43;100.00;95440.91;2098457;28;20382;-62
2024/03/05 02:51:08;;;;;;;79.55;34.97;;;;;;;5.43;100.00;95440.91;2098580;28;20040;-62
2024/03/05 02:52:10;;;;;;;79.32;34.85;;;;;;;5.41;100.00;95439.25;2099227;28;20075;-62
2024/03/05 02:53:11;;;;;;;84.28;36.75;;;;;;;5.35;100.00;95437.75;2099369;28;20064;-62
2024/03/05 02:54:12;;;;;;;78.70;36.35;;;;;;;5.38;100.00;95436.81;2099348;28;20036;-61
2024/03/05 02:55:14;;;;;;;88.00;37.20;;;;;;;5.37;100.00;95443.66;2099211;28;20075;-62
2024/03/05 02:56:15;;;;;;;85.40;36.30;;;;;;;5.37;100.00;95435.09;2090546;28;20512;-62
2024/03/05 02:57:16;;;;;;;87.38;37.70;;;;;;;5.36;100.00;95436.84;2089239;28;20044;-62
2024/03/05 02:58:17;;;;;;;87.75;39.03;;;;;;;5.34;100.00;95428.34;2099586;28;20051;-61
2024/03/05 02:59:19;;;;;;;81.38;36.17;;;;;;;5.31;100.00;95429.28;2099595;28;20396;-62
2024/03/05 03:00:20;;;;;;;79.55;35.33;;;;;;;5.35;100.00;95440.34;2099110;28;20052;-62
2024/03/05 03:01:21;;;;;;;85.93;39.28;;;;;;;5.35;100.00;95430.03;2090549;28;20056;-61
2024/03/05 03:02:22;;;;;;;83.80;37.47;;;;;;;5.36;100.00;95430.88;2089751;28;20048;-62
2024/03/05 03:03:23;;;;;;;79.70;36.65;;;;;;;5.38;100.00;95439.38;2098796;28;20044;-62
2024/03/05 03:04:26;;;;;;;76.95;34.80;;;;;;;5.40;100.00;95441.00;2099401;28;20051;-61
2024/03/05 03:05:27;;;;;;;77.75;33.45;;;;;;;5.38;100.00;95442.78;2098510;28;20056;-61
2024/03/05 03:06:28;;;;;;;85.82;38.40;;;;;;;5.36;100.00;95449.72;2099433;28;20048;-61
2024/03/05 03:07:29;;;;;;;85.28;37.40;;;;;;;5.33;100.00;95439.53;2099520;28;20491;-61
2024/03/05 03:08:30;;;;;;;79.85;35.92;;;;;;;5.32;100.00;95448.16;2099305;28;20147;-64
2024/03/05 03:09:31;;;;;;;79.75;36.05;;;;;;;5.30;100.00;95440.47;2099550;28;20047;-61
2024/03/05 03:10:32;;;;;;;83.70;37.13;;;;;;;5.30;100.00;95445.63;2099012;28;20037;-61
2024/03/05 03:11:34;;;;;;;85.85;37.35;;;;;;;5.30;100.00;95443.06;2098146;28;20045;-62
2024/03/05 03:12:35;;;;;;;82.82;35.78;;;;;;;5.29;100.00;95437.94;2099343;28;20047;-62
2024/03/05 03:13:36;;;;;;;82.70;36.05;;;;;;;5.26;100.00;95438.06;2098776;28;20191;-62
2024/03/05 03:14:42;;;;;;;83.30;37.83;;;;;;;5.30;100.00;95447.38;2099196;28;20040;-61
2024/03/05 03:15:43;;;;;;;80.45;34.80;;;;;;;5.32;100.00;95440.44;2098666;28;20063;-62
2024/03/05 03:16:44;;;;;;;88.50;37.45;;;;;;;5.32;100.00;95443.00;2098598;28;20052;-62
2024/03/05 03:17:45;;;;;;;87.70;37.22;;;;;;;5.35;100.00;95447.22;2099374;28;20385;-62
2024/03/05 03:18:46;;;;;;;84.25;35.83;;;;;;;5.33;100.00;95441.28;2099221;28;20488;-62
2024/03/05 03:19:47;;;;;;;88.13;37.85;;;;;;;5.32;100.00;95450.75;2098718;28;20416;-61
2024/03/05 03:20:48;;;;;;;82.90;36.53;;;;;;;5.30;100.00;95448.22;2098814;28;20071;-62
2024/03/05 03:21:49;;;;;;;82.32;36.75;;;;;;;5.29;100.00;95449.13;2099441;28;20041;-62
2024/03/05 03:22:51;;;;;;;77.85;36.22;;;;;;;5.33;100.00;95449.00;2098702;28;20408;-62
2024/03/05 03:23:52;;;;;;;81.53;36.28;;;;;;;5.31;100.00;95444.72;2099140;28;20043;-62
2024/03/05 03:24:53;;;;;;;74.60;35.75;;;;;;;5.34;100.00;95451.50;2098740;28;20071;-62
2024/03/05 03:25:54;;;;;;;80.03;36.75;;;;;;;5.32;100.00;95450.75;2098941;28;20044;-62
2024/03/05 03:26:56;;;;;;;84.53;37.00;;;;;;;5.33;100.00;95446.44;2098607;28;20037;-62
2024/03/05 03:27:58;;;;;;;80.22;36.30;;;;;;;5.35;100.00;95450.63;2099215;28;20040;-62
2024/03/05 03:28:59;;;;;;;90.05;37.97;;;;;;;5.35;100.00;95453.19;2098882;28;20051;-61
2024/03/05 03:30:00;;;;;;;80.05;36.15;;;;;;;5.36;100.00;95449.72;2099253;28;20044;-61
2024/03/05 03:31:01;;;;;;;82.47;36.22;;;;;;;5.32;100.00;95448.16;2099247;28;20040;-61
2024/03/05 03:32:04;;;;;;;81.65;36.20;;;;;;;5.36;100.00;95447.16;2099186;28;20396;-62
2024/03/05 03:33:05;;;;;;;77.80;35.03;;;;;;;5.36;100.00;95448.88;2099063;28;20476;-62
2024/03/05 03:34:06;;;;;;;81.60;36.78;;;;;;;5.38;100.00;95447.94;2099170;28;20043;-62
2024/03/05 03:35:08;;;;;;;78.50;36.22;;;;;;;5.36;100.00;95436.00;2098630;28;20035;-61
2024/03/05 03:36:09;;;;;;;81.40;36.65;;;;;;;5.37;100.00;95443.66;2098522;28;20052;-62
2024/03/05 03:37:12;;;;;;;80.18;34.75;;;;;;;5.35;100.00;95447.22;2099034;28;20037;-61
2024/03/05 03:38:13;;;;;;;77.82;34.55;;;;;;;5.35;100.00;95444.66;2099856;28;20036;-60
2024/03/05 03:39:23;;;;;;;73.95;34.08;;;;;;;5.35;100.00;95442.91;2099677;28;20045;-61
2024/03/05 03:40:24;;;;;;;83.00;35.92;;;;;;;5.34;100.00;95451.50;2100040;28;20041;-60
2024/03/05 03:41:25;;;;;;;79.32;35.85;;;;;;;5.30;100.00;95455.09;2098869;28;20408;-61
2024/03/05 03:42:27;;;;;;;84.72;37.20;;;;;;;5.28;100.00;95454.31;2098672;28;20033;-61
2024/03/05 03:43:28;;;;;;;80.93;35.20;;;;;;;5.25;100.00;95457.00;2098981;28;20037;-61
2024/03/05 03:44:29;;;;;;;83.65;36.85;;;;;;;5.23;100.00;95457.03;2098962;28;20480;-61
2024/03/05 03:45:32;;;;;;;77.88;35.75;;;;;;;5.22;100.00;95459.69;2099012;28;20045;-62
2024/03/05 03:46:36;;;;;;;79.53;34.50;;;;;;;5.21;100.00;95460.56;2098341;28;20055;-61
2024/03/05 03:47:37;;;;;;;79.38;36.22;;;;;;;5.21;100.00;95465.69;2090297;28;20045;-61
2024/03/05 03:48:39;;;;;;;83.07;35.50;;;;;;;5.16;100.00;95460.72;2090260;28;20044;-60
2024/03/05 03:49:44;;;;;;;84.10;37.55;;;;;;;5.15;100.00;95466.75;2098121;28;20048;-61
2024/03/05 03:50:46;;;;;;;87.88;38.65;;;;;;;5.14;100.00;95459.94;2098625;28;20055;-61
2024/03/05 03:51:47;;;;;;;89.00;38.38;;;;;;;5.14;100.00;95470.22;2098891;28;20055;-61
2024/03/05 03:52:49;;;;;;;90.05;37.05;;;;;;;5.13;100.00;95465.97;2099070;28;20054;-62
2024/03/05 03:53:51;;;;;;;90.03;38.85;;;;;;;5.12;100.00;95466.03;2089656;28;20048;-61
2024/03/05 03:54:52;;;;;;;83.57;37.92;;;;;;;5.12;100.00;95461.72;2089616;28;20051;-61
2024/03/05 03:55:53;;;;;;;91.88;39.28;;;;;;;5.11;100.00;95464.34;2089760;28;20040;-61
2024/03/05 03:56:55;;;;;;;91.85;38.53;;;;;;;5.08;100.00;95471.28;2088954;28;20044;-61
2024/03/05 03:57:56;;;;;;;92.20;39.47;;;;;;;5.07;100.00;95464.44;2098329;28;20052;-61
2024/03/05 03:58:57;;;;;;;92.00;39.55;;;;;;;5.07;100.00;95473.91;2098301;28;20051;-61
2024/03/05 03:59:59;;;;;;;84.20;37.88;;;;;;;5.03;100.00;95468.03;2099226;28;20388;-61
2024/03/05 04:01:00;;;;;;;88.85;39.47;;;;;;;5.02;100.00;95471.47;2098987;28;20428;-61
2024/03/05 04:02:01;;;;;;;93.03;39.78;;;;;;;5.00;100.00;95470.72;2098667;28;20036;-61
2024/03/05 04:03:02;;;;;;;93.57;40.67;;;;;;;4.98;100.00;95476.78;2098383;28;20408;-62
2024/03/05 04:04:03;;;;;;;91.15;39.75;;;;;;;4.96;100.00;95481.97;2098147;28;20059;-62
2024/03/05 04:05:05;;;;;;;86.70;38.10;;;;;;;4.93;100.00;95481.25;2098511;28;20049;-61
2024/03/05 04:06:06;;;;;;;100.70;40.33;;;;;;;4.90;100.00;95474.47;2098261;28;20052;-62
2024/03/05 04:07:07;;;;;;;96.10;40.80;;;;;;;4.89;100.00;95480.50;2099062;28;20032;-61
2024/03/05 04:08:08;;;;;;;98.15;40.25;;;;;;;4.86;100.00;95485.75;2098543;28;20404;-61
2024/03/05 04:09:13;;;;;;;97.90;40.22;;;;;;;4.82;100.00;95484.19;2099053;28;20028;-61
2024/03/05 04:10:15;;;;;;;90.88;36.85;;;;;;;4.78;100.00;95483.41;2098814;28;20108;-61
2024/03/05 04:11:16;;;;;;;91.20;40.45;;;;;;;4.77;100.00;95486.91;2098767;28;20044;-61
2024/03/05 04:12:17;;;;;;;101.40;42.55;;;;;;;4.77;100.00;95480.91;2098879;28;20041;-61
2024/03/05 04:13:18;;;;;;;101.50;40.58;;;;;;;4.77;100.00;95492.03;2099022;28;20063;-61
2024/03/05 04:14:19;;;;;;;94.72;39.17;;;;;;;4.75;100.00;95488.66;2098031;28;20057;-61
2024/03/05 04:15:21;;;;;;;101.20;42.17;;;;;;;4.75;100.00;95487.84;2097841;28;20044;-62
2024/03/05 04:16:23;;;;;;;99.72;41.92;;;;;;;4.76;100.00;95489.53;2098794;28;20385;-61
2024/03/05 04:17:24;;;;;;;101.72;42.38;;;;;;;4.74;100.00;95494.72;2098167;28;20052;-61
2024/03/05 04:18:25;;;;;;;95.50;41.75;;;;;;;4.72;100.00;95483.63;2098143;28;20044;-62
2024/03/05 04:19:26;;;;;;;108.20;43.47;;;;;;;4.68;100.00;95494.06;2098749;28;20043;-62
2024/03/05 04:20:27;;;;;;;100.50;42.78;;;;;;;4.66;100.00;95496.69;2098661;28;20396;-60
2024/03/05 04:21:29;;;;;;;106.15;41.70;;;;;;;4.66;100.00;95493.28;2098056;28;20040;-61
2024/03/05 04:22:30;;;;;;;101.88;42.38;;;;;;;4.63;100.00;95494.22;2098512;28;20051;-61
2024/03/05 04:23:32;;;;;;;102.60;41.50;;;;;;;4.64;100.00;95495.91;2097847;28;20057;-62
2024/03/05 04:24:35;;;;;;;107.65;43.28;;;;;;;4.61;100.00;95490.84;2098766;28;20476;-62
2024/03/05 04:25:39;;;;;;;114.72;42.90;;;;;;;4.61;100.00;95490.84;2098611;28;20047;-62
2024/03/05 04:26:48;;;;;;;101.45;41.78;;;;;;;4.64;100.00;95493.31;2098157;28;20056;-61
2024/03/05 04:27:49;;;;;;;104.50;39.08;;;;;;;4.67;100.00;95494.97;2097979;28;20407;-62
2024/03/05 04:28:52;;;;;;;109.10;41.88;;;;;;;4.69;100.00;95495.75;2098004;28;20055;-62
2024/03/05 04:29:56;;;;;;;99.78;42.00;;;;;;;4.67;100.00;95494.97;2098017;28;20048;-62
2024/03/05 04:30:57;;;;;;;109.13;44.65;;;;;;;4.70;100.00;95503.41;2098288;28;20065;-61
2024/03/05 04:32:08;;;;;;;108.63;42.95;;;;;;;4.71;100.00;95493.97;2098541;28;20040;-62
2024/03/05 04:33:10;;;;;;;102.18;40.72;;;;;;;4.70;100.00;95503.41;2098723;28;20036;-61
2024/03/05 04:34:13;;;;;;;103.07;41.25;;;;;;;4.68;100.00;95497.50;2098019;28;20057;-62
2024/03/05 04:35:16;;;;;;;103.05;40.17;;;;;;;4.68;100.00;95496.63;2097602;28;20488;-61
2024/03/05 04:36:17;;;;;;;110.28;43.95;;;;;;;4.64;100.00;95501.03;2098560;28;20040;-61
2024/03/05 04:37:18;;;;;;;104.22;41.42;;;;;;;4.68;100.00;95502.63;2098627;28;20040;-60
2024/03/05 04:38:19;;;;;;;102.40;40.33;;;;;;;4.69;100.00;95498.31;2098342;28;20055;-61
2024/03/05 04:39:22;;;;;;;101.00;40.35;;;;;;;4.67;100.00;95498.38;2098045;28;20056;-61
2024/03/05 04:40:23;;;;;;;108.93;41.50;;;;;;;4.66;100.00;95504.41;2098190;28;20052;-61
2024/03/05 04:41:24;;;;;;;102.50;41.83;;;;;;;4.66;100.00;95499.25;2098766;28;20044;-62
2024/03/05 04:42:25;;;;;;;101.00;37.58;;;;;;;4.67;100.00;95511.22;2098600;28;20041;-61
2024/03/05 04:43:26;;;;;;;99.03;38.17;;;;;;;4.66;100.00;95513.88;2097955;28;20059;-61